Time;durP1;ratioP1;P1;durP2;ratioP2;P2;SDS_P1;SDS_P2;PMS_P1;PMS_P2;Temp;Humidity;BMP_temperature;BMP_pressure;BME280_temperature;BME280_humidity;BME280_pressure;Samples;Min_cycle;Max_cycle;Signal;HPM_P1;HPM_P2
2022/04/15 00:00:38;;;;;;;15.72;7.65;;;;;;;9.78;75.89;150113.23;1605954;89;21087;-63
2022/04/15 00:03:06;;;;;;;15.18;7.70;;;;;;;9.70;76.00;150092.45;1606272;88;21013;-64
2022/04/15 00:05:37;;;;;;;19.55;8.53;;;;;;;9.60;76.10;150067.81;1606301;88;21660;-64
2022/04/15 00:08:07;;;;;;;16.02;8.28;;;;;;;9.49;76.38;150040.58;1606159;88;21253;-69
2022/04/15 00:10:36;;;;;;;15.28;8.18;;;;;;;9.37;76.50;150010.77;1605838;89;21091;-70
2022/04/15 00:13:06;;;;;;;14.83;8.68;;;;;;;9.25;76.73;149979.67;1606747;88;21088;-69
2022/04/15 00:15:33;;;;;;;16.45;7.90;;;;;;;9.13;77.05;149951.12;1605758;89;21092;-67
2022/04/15 00:18:01;;;;;;;14.25;8.10;;;;;;;9.03;77.81;149925.23;1606415;88;21032;-68
2022/04/15 00:20:28;;;;;;;15.50;8.15;;;;;;;9.02;78.28;149922.64;1605820;88;21286;-67
2022/04/15 00:22:58;;;;;;;18.20;8.93;;;;;;;9.02;78.37;149922.64;1606131;88;21087;-67
2022/04/15 00:25:25;;;;;;;19.52;8.55;;;;;;;9.00;78.46;149917.47;1605747;89;21133;-67
2022/04/15 00:27:53;;;;;;;17.15;8.53;;;;;;;8.94;78.22;149901.87;1606175;88;21143;-67
2022/04/15 00:30:21;;;;;;;16.37;9.05;;;;;;;8.85;78.13;149879.88;1605762;88;21553;-68
2022/04/15 00:32:48;;;;;;;21.52;9.80;;;;;;;8.74;78.19;149852.66;1605860;88;22805;-68
2022/04/15 00:35:15;;;;;;;17.12;8.45;;;;;;;8.63;78.22;149824.13;1605552;89;21012;-68
2022/04/15 00:37:45;;;;;;;14.07;8.50;;;;;;;8.52;78.50;149796.92;1605397;88;21083;-68
2022/04/15 00:40:14;;;;;;;18.42;9.08;;;;;;;8.41;78.74;149770.98;1624000;86;21049;-68
2022/04/15 00:42:41;;;;;;;14.68;8.03;;;;;;;8.32;79.02;149747.62;1605314;89;21079;-68
2022/04/15 00:45:09;;;;;;;15.38;8.53;;;;;;;8.21;79.53;149719.16;1605905;88;21468;-64
2022/04/15 00:47:56;;;;;;;18.77;8.33;;;;;;;8.15;79.69;149704.89;1605888;88;21126;-68
2022/04/15 00:50:32;;;;;;;17.10;8.70;;;;;;;8.08;80.10;149686.78;1606118;88;21072;-67
2022/04/15 00:53:06;;;;;;;17.10;8.23;;;;;;;8.02;80.40;149673.80;1605925;88;21032;-68
2022/04/15 00:55:31;;;;;;;19.98;8.30;;;;;;;7.94;80.71;149653.08;1605821;88;21585;-68
2022/04/15 00:58:00;;;;;;;15.93;8.38;;;;;;;7.89;81.16;149640.14;1605881;88;21929;-64
2022/04/15 01:00:31;;;;;;;15.95;7.75;;;;;;;7.84;81.36;149628.47;1605915;88;21112;-65
2022/04/15 01:03:00;;;;;;;17.17;7.62;;;;;;;7.81;81.66;149620.72;1606463;88;21065;-64
2022/04/15 01:05:28;;;;;;;13.95;7.05;;;;;;;7.80;82.22;149618.12;1606283;88;21145;-68
2022/04/15 01:07:56;;;;;;;15.10;6.75;;;;;;;7.85;82.64;149629.80;1606096;89;21098;-68
2022/04/15 01:10:26;;;;;;;10.98;6.70;;;;;;;7.93;83.11;149650.50;1606024;88;21056;-64
2022/04/15 01:12:57;;;;;;;16.93;7.10;;;;;;;8.02;83.27;149672.52;1605796;88;21024;-64
2022/04/15 01:15:27;;;;;;;16.15;7.00;;;;;;;8.11;83.07;149694.55;1605977;89;21080;-67
2022/04/15 01:17:54;;;;;;;14.18;7.10;;;;;;;8.15;83.04;149706.16;1605876;88;21155;-67
2022/04/15 01:20:22;;;;;;;18.10;7.47;;;;;;;8.21;82.96;149720.42;1606185;88;21100;-68
2022/04/15 01:23:09;;;;;;;18.07;7.70;;;;;;;8.25;82.86;149730.78;1605934;88;22191;-65
2022/04/15 01:25:36;;;;;;;14.10;7.40;;;;;;;8.23;82.34;149725.61;1605875;88;21160;-63
2022/04/15 01:28:04;;;;;;;15.90;7.33;;;;;;;8.19;81.92;149713.98;1606142;88;21124;-64
2022/04/15 01:30:31;;;;;;;9.63;6.00;;;;;;;8.15;82.42;149704.89;1605573;87;21079;-64
2022/04/15 01:32:59;;;;;;;11.75;6.42;;;;;;;8.17;82.99;149711.34;1606152;88;21044;-68
2022/04/15 01:35:26;;;;;;;11.48;5.47;;;;;;;8.25;83.39;149730.78;1605810;87;21895;-67
2022/04/15 01:37:53;;;;;;;10.85;5.50;;;;;;;8.37;83.37;149759.31;1606045;88;21073;-67
2022/04/15 01:40:22;;;;;;;14.00;6.00;;;;;;;8.46;83.31;149782.61;1605670;89;21544;-64
2022/04/15 01:42:49;;;;;;;21.20;9.38;;;;;;;8.56;82.98;149807.28;1605943;88;21121;-67
2022/04/15 01:45:17;;;;;;;39.05;15.45;;;;;;;8.54;82.02;149803.42;1605920;89;21017;-64
2022/04/15 01:47:44;;;;;;;57.03;20.90;;;;;;;8.43;81.83;149774.84;1605933;89;21262;-64
2022/04/15 01:50:11;;;;;;;58.73;22.45;;;;;;;8.34;81.98;149752.81;1606090;88;20929;-64
2022/04/15 01:52:38;;;;;;;65.47;23.05;;;;;;;8.25;82.09;149730.78;1605256;89;21115;-64
2022/04/15 01:55:08;;;;;;;49.45;19.30;;;;;;;8.17;82.37;149711.34;1605596;88;21056;-65
2022/04/15 01:57:35;;;;;;;38.83;14.73;;;;;;;8.11;82.53;149695.81;1605964;88;21130;-63
2022/04/15 02:00:05;;;;;;;25.30;11.20;;;;;;;8.03;82.59;149676.38;1605680;88;21333;-64
2022/04/15 02:02:36;;;;;;;19.17;9.33;;;;;;;7.95;82.95;149654.34;1605822;87;21079;-65
2022/04/15 02:05:04;;;;;;;15.25;8.00;;;;;;;7.89;83.35;149640.14;1605998;88;21109;-63
2022/04/15 02:07:31;;;;;;;15.32;6.70;;;;;;;7.85;83.77;149631.06;1606118;89;21164;-62
2022/04/15 02:09:58;;;;;;;16.15;7.28;;;;;;;7.87;84.37;149634.97;1606326;89;21084;-62
2022/04/15 02:12:26;;;;;;;12.07;6.83;;;;;;;7.91;84.60;149645.31;1605685;88;22606;-67
2022/04/15 02:14:53;;;;;;;16.57;7.60;;;;;;;7.97;84.71;149659.58;1605945;89;21278;-67
2022/04/15 02:17:22;;;;;;;14.38;7.78;;;;;;;7.97;84.58;149660.84;1605598;88;21080;-67
2022/04/15 02:19:50;;;;;;;13.88;7.53;;;;;;;7.95;84.32;149654.34;1605499;88;21115;-67
2022/04/15 02:22:17;;;;;;;13.40;7.15;;;;;;;7.88;84.32;149637.56;1608849;87;20965;-67
2022/04/15 02:24:45;;;;;;;15.68;7.30;;;;;;;7.82;84.38;149621.98;1612666;87;21831;-63
2022/04/15 02:27:12;;;;;;;15.78;8.33;;;;;;;7.78;84.46;149611.62;1612868;87;21434;-63
2022/04/15 02:29:39;;;;;;;14.75;8.33;;;;;;;7.72;84.56;149598.69;1612663;87;21067;-63
2022/04/15 02:32:07;;;;;;;14.60;8.65;;;;;;;7.68;84.68;149587.03;1613113;87;21020;-63
2022/04/15 02:34:34;;;;;;;12.45;7.58;;;;;;;7.63;84.64;149575.41;1612668;87;21123;-67
2022/04/15 02:37:02;;;;;;;15.53;8.15;;;;;;;7.58;84.76;149562.42;1613445;87;21255;-64
2022/04/15 02:39:29;;;;;;;15.23;7.87;;;;;;;7.54;84.97;149552.06;1612944;87;21080;-63
2022/04/15 02:41:56;;;;;;;17.98;7.50;;;;;;;7.51;85.38;149545.58;1613077;87;21124;-66
2022/04/15 02:44:24;;;;;;;13.98;7.58;;;;;;;7.52;85.56;149548.22;1612584;87;21076;-69
2022/04/15 02:46:53;;;;;;;14.60;7.87;;;;;;;7.55;85.78;149554.66;1613060;88;21063;-68
2022/04/15 02:49:21;;;;;;;24.25;8.50;;;;;;;7.59;85.74;149565.00;1612839;88;21095;-65
2022/04/15 02:51:50;;;;;;;15.00;8.43;;;;;;;7.59;85.50;149565.00;1612817;87;21095;-65
2022/04/15 02:54:17;;;;;;;16.05;8.33;;;;;;;7.56;85.18;149558.56;1612934;87;21045;-65
2022/04/15 02:56:44;;;;;;;19.17;8.35;;;;;;;7.53;85.28;149549.48;1612769;88;21083;-65
2022/04/15 02:59:13;;;;;;;18.57;8.88;;;;;;;7.51;85.61;149544.31;1612950;87;21586;-68
2022/04/15 03:01:40;;;;;;;13.68;7.70;;;;;;;7.51;85.78;149544.31;1612717;87;21548;-65
2022/04/15 03:04:07;;;;;;;15.38;8.05;;;;;;;7.52;85.96;149548.22;1612995;87;21439;-68
2022/04/15 03:06:34;;;;;;;17.17;8.73;;;;;;;7.55;86.08;149554.66;1612692;88;21128;-68
2022/04/15 03:09:04;;;;;;;13.28;7.90;;;;;;;7.54;85.87;149553.39;1613171;88;21012;-68
2022/04/15 03:11:32;;;;;;;16.97;8.80;;;;;;;7.51;85.55;149544.31;1612541;87;21087;-68
2022/04/15 03:14:00;;;;;;;16.45;8.25;;;;;;;7.42;85.33;149523.61;1613020;87;22188;-68
2022/04/15 03:16:28;;;;;;;21.52;8.98;;;;;;;7.34;85.15;149501.59;1612437;87;21075;-68
2022/04/15 03:18:56;;;;;;;21.52;9.18;;;;;;;7.24;85.33;149477.00;1613108;87;21120;-68
2022/04/15 03:21:23;;;;;;;16.62;8.83;;;;;;;7.16;85.46;149457.58;1612503;87;21063;-64
2022/04/15 03:23:51;;;;;;;16.82;8.28;;;;;;;7.05;85.71;149430.41;1606082;88;21096;-64
2022/04/15 03:26:19;;;;;;;17.48;8.70;;;;;;;6.99;86.35;149414.88;1605738;88;21526;-67
2022/04/15 03:28:46;;;;;;;18.57;9.33;;;;;;;6.96;87.33;149408.39;1605802;88;21123;-67
2022/04/15 03:31:15;;;;;;;16.27;9.03;;;;;;;6.99;87.97;149416.16;1606295;88;21056;-68
2022/04/15 03:33:42;;;;;;;22.13;10.23;;;;;;;7.05;88.40;149430.41;1605554;89;21076;-67
2022/04/15 03:36:09;;;;;;;20.80;10.05;;;;;;;7.10;88.68;149443.33;1606020;88;21033;-68
2022/04/15 03:38:36;;;;;;;19.82;9.23;;;;;;;7.17;88.33;149461.44;1605479;88;22758;-67
2022/04/15 03:41:03;;;;;;;19.32;8.15;;;;;;;7.22;88.66;149471.83;1605797;89;21076;-68
2022/04/15 03:43:32;;;;;;;16.00;8.38;;;;;;;7.34;89.10;149502.88;1605619;88;21000;-68
2022/04/15 03:45:59;;;;;;;16.55;8.43;;;;;;;7.48;88.95;149536.55;1605717;88;21333;-69
2022/04/15 03:48:27;;;;;;;18.65;7.55;;;;;;;7.59;88.70;149566.33;1605640;89;21148;-64
2022/04/15 03:50:56;;;;;;;19.02;8.55;;;;;;;7.69;88.37;149590.94;1605875;88;21091;-65
2022/04/15 03:53:23;;;;;;;16.77;9.05;;;;;;;7.81;87.85;149619.39;1605600;88;21501;-65
2022/04/15 03:55:51;;;;;;;16.55;9.15;;;;;;;7.88;87.39;149637.56;1605756;88;21205;-65
2022/04/15 03:58:19;;;;;;;20.35;9.55;;;;;;;7.94;86.75;149653.08;1605760;88;21083;-68
2022/04/15 04:00:47;;;;;;;17.60;9.50;;;;;;;7.97;86.09;149660.84;1605789;88;21303;-69
2022/04/15 04:03:15;;;;;;;18.95;9.88;;;;;;;7.97;85.69;149659.58;1606097;87;22107;-68
2022/04/15 04:05:42;;;;;;;24.87;12.20;;;;;;;7.96;85.64;149658.27;1605759;87;21546;-65
2022/04/15 04:08:09;;;;;;;22.52;11.55;;;;;;;8.01;85.58;149671.20;1605994;89;21045;-68
2022/04/15 04:10:37;;;;;;;25.68;13.22;;;;;;;8.10;85.45;149693.22;1605635;89;21068;-69
2022/04/15 04:13:04;;;;;;;28.50;13.78;;;;;;;8.21;85.14;149719.16;1606333;89;21041;-68
2022/04/15 04:15:32;;;;;;;23.50;14.00;;;;;;;8.30;84.71;149743.78;1605792;88;21265;-69
2022/04/15 04:17:59;;;;;;;24.35;13.22;;;;;;;8.38;84.15;149761.89;1606047;89;21124;-69
2022/04/15 04:20:26;;;;;;;26.68;12.37;;;;;;;8.42;83.71;149773.56;1605570;88;21047;-68
2022/04/15 04:22:53;;;;;;;20.15;11.45;;;;;;;8.49;83.48;149790.38;1609015;88;21110;-64
2022/04/15 04:25:22;;;;;;;23.80;11.80;;;;;;;8.56;83.18;149808.59;1612530;87;21375;-66
2022/04/15 04:27:50;;;;;;;23.42;12.25;;;;;;;8.64;82.82;149828.05;1612773;87;21956;-65
2022/04/15 04:30:17;;;;;;;22.27;12.13;;;;;;;8.72;82.56;149847.44;1612788;87;21032;-65
2022/04/15 04:32:49;;;;;;;26.12;11.88;;;;;;;8.83;82.24;149875.97;1612927;87;21091;-65
2022/04/15 04:35:13;;;;;;;26.80;12.68;;;;;;;8.89;81.97;149891.50;1613337;87;21162;-64
2022/04/15 04:37:42;;;;;;;25.80;11.88;;;;;;;9.02;81.84;149922.64;1612749;88;21091;-64
2022/04/15 04:40:10;;;;;;;21.12;10.72;;;;;;;9.20;81.62;149966.72;1613502;88;21739;-68
2022/04/15 04:42:37;;;;;;;22.77;11.40;;;;;;;9.38;81.15;150013.34;1612948;87;21108;-68
2022/04/15 04:45:07;;;;;;;23.87;11.43;;;;;;;9.57;80.59;150061.36;1595312;88;21009;-65
2022/04/15 04:47:34;;;;;;;23.22;11.12;;;;;;;9.74;80.08;150104.14;1613020;87;21087;-65
2022/04/15 04:50:01;;;;;;;20.20;10.90;;;;;;;9.94;79.59;150153.44;1613193;87;21025;-68
2022/04/15 04:52:30;;;;;;;22.32;11.08;;;;;;;10.11;78.72;150196.22;1612107;87;21075;-68
2022/04/15 04:54:57;;;;;;;27.75;12.53;;;;;;;10.29;78.18;150241.66;1612769;88;21151;-68
2022/04/15 04:57:24;;;;;;;28.23;12.00;;;;;;;10.48;77.55;150287.11;1612023;87;21116;-69
2022/04/15 04:59:51;;;;;;;24.45;12.03;;;;;;;10.64;76.96;150327.33;1612601;87;21197;-64
2022/04/15 05:02:19;;;;;;;25.92;13.03;;;;;;;10.83;76.46;150375.33;1612668;87;21443;-70
2022/04/15 05:04:47;;;;;;;29.27;12.73;;;;;;;11.02;75.79;150423.37;1612776;87;21075;-70
2022/04/15 05:07:15;;;;;;;26.57;13.43;;;;;;;11.20;75.04;150468.81;1612960;88;21033;-67
2022/04/15 05:09:43;;;;;;;22.20;11.40;;;;;;;11.37;74.20;150511.64;1612652;88;21570;-68
2022/04/15 05:12:10;;;;;;;19.20;9.78;;;;;;;11.55;73.35;150555.80;1612820;88;21076;-68
2022/04/15 05:14:38;;;;;;;19.50;9.38;;;;;;;11.69;72.70;150592.17;1612487;87;21167;-68
2022/04/15 05:17:05;;;;;;;18.17;9.15;;;;;;;11.87;71.88;150636.34;1613245;87;21275;-68
2022/04/15 05:19:32;;;;;;;19.75;8.63;;;;;;;12.01;71.25;150672.73;1612880;87;21075;-69
2022/04/15 05:22:01;;;;;;;14.90;8.73;;;;;;;12.18;70.65;150714.31;1612789;88;21012;-68
2022/04/15 05:24:29;;;;;;;26.85;13.08;;;;;;;12.36;70.12;150758.50;1605630;87;21087;-65
2022/04/15 05:26:56;;;;;;;24.05;11.40;;;;;;;12.54;69.42;150805.28;1605880;88;21108;-64
2022/04/15 05:29:23;;;;;;;21.15;10.35;;;;;;;12.73;68.28;150852.08;1605554;87;21177;-64
2022/04/15 05:31:52;;;;;;;21.90;10.08;;;;;;;12.88;67.51;150891.03;1605388;88;21151;-65
2022/04/15 05:34:19;;;;;;;17.32;9.03;;;;;;;13.10;66.91;150945.64;1605464;88;21009;-68
2022/04/15 05:36:46;;;;;;;16.82;8.53;;;;;;;13.48;66.24;151039.31;1605438;88;21113;-65
2022/04/15 05:39:13;;;;;;;8.78;5.42;;;;;;;13.92;65.19;151151.17;1605676;88;21036;-65
2022/04/15 05:41:40;;;;;;;12.68;7.20;;;;;;;14.47;63.85;151289.05;1605376;88;22147;-66
2022/04/15 05:44:08;;;;;;;16.25;8.53;;;;;;;15.09;61.88;151444.03;1605721;88;20989;-69
2022/04/15 05:46:37;;;;;;;17.87;10.70;;;;;;;15.75;60.27;151611.97;1605729;88;21151;-67
2022/04/15 05:49:08;;;;;;;16.37;9.40;;;;;;;16.27;58.15;151740.98;1606111;88;21005;-64
2022/04/15 05:51:35;;;;;;;11.22;6.75;;;;;;;16.59;56.58;151823.08;1605353;88;21167;-65
2022/04/15 05:54:02;;;;;;;13.38;7.90;;;;;;;16.84;54.55;151885.62;1606026;88;21799;-64
2022/04/15 05:56:31;;;;;;;20.55;10.48;;;;;;;16.95;53.30;151913.00;1605727;88;21071;-67
2022/04/15 05:58:58;;;;;;;17.35;8.73;;;;;;;16.87;53.03;151893.44;1605743;87;21080;-68
2022/04/15 06:01:25;;;;;;;15.35;8.23;;;;;;;16.71;52.51;151851.77;1606145;88;21056;-68
2022/04/15 06:03:52;;;;;;;15.23;9.00;;;;;;;16.53;52.45;151807.45;1605953;89;21111;-68
2022/04/15 06:06:20;;;;;;;14.50;7.85;;;;;;;16.41;52.30;151776.16;1605844;88;21244;-69
2022/04/15 06:08:47;;;;;;;12.80;7.53;;;;;;;16.29;52.03;151747.52;1605845;88;21739;-67
2022/04/15 06:11:14;;;;;;;12.00;6.95;;;;;;;16.16;51.84;151713.62;1606118;88;21089;-68
2022/04/15 06:13:47;;;;;;;12.93;7.05;;;;;;;16.01;51.60;151677.13;1605568;88;21147;-68
2022/04/15 06:16:12;;;;;;;13.30;6.60;;;;;;;15.84;51.31;151632.84;1606404;88;21044;-68
2022/04/15 06:18:39;;;;;;;10.08;6.12;;;;;;;15.67;51.63;151591.14;1605774;88;21374;-68
2022/04/15 06:21:08;;;;;;;11.78;5.97;;;;;;;15.58;51.67;151567.67;1606246;88;20937;-64
2022/04/15 06:23:35;;;;;;;11.20;6.47;;;;;;;15.53;51.67;151554.66;1605734;87;21103;-66
2022/04/15 06:26:04;;;;;;;9.93;5.70;;;;;;;15.52;52.01;151552.06;1606115;88;20993;-64
2022/04/15 06:28:32;;;;;;;16.15;6.70;;;;;;;15.52;51.71;151552.06;1605824;89;21127;-68
2022/04/15 06:31:00;;;;;;;17.37;6.58;;;;;;;15.53;51.69;151554.66;1606036;88;21274;-68
2022/04/15 06:33:27;;;;;;;13.98;6.80;;;;;;;15.54;51.97;151557.27;1605521;88;21859;-67
2022/04/15 06:35:54;;;;;;;10.88;6.72;;;;;;;15.55;51.82;151561.20;1606136;88;21061;-65
2022/04/15 06:38:21;;;;;;;12.68;5.90;;;;;;;15.57;51.74;151565.08;1605842;88;21271;-69
2022/04/15 06:40:48;;;;;;;10.23;5.65;;;;;;;15.55;51.44;151559.88;1605822;88;21128;-71
2022/04/15 06:43:15;;;;;;;11.73;6.35;;;;;;;15.49;51.33;151545.58;1605859;88;21250;-68
2022/04/15 06:45:44;;;;;;;12.33;6.33;;;;;;;15.46;51.48;151537.73;1605644;88;21076;-68
2022/04/15 06:48:11;;;;;;;15.53;8.10;;;;;;;15.42;51.57;151528.66;1605885;88;21041;-68
2022/04/15 06:50:39;;;;;;;16.15;6.90;;;;;;;15.38;52.12;151518.23;1605385;87;21160;-70
2022/04/15 06:53:07;;;;;;;10.72;5.37;;;;;;;15.39;52.25;151520.84;1606535;88;20986;-69
2022/04/15 06:55:34;;;;;;;10.38;6.25;;;;;;;15.41;51.71;151526.05;1605860;88;21589;-70
2022/04/15 06:58:01;;;;;;;8.43;5.42;;;;;;;15.40;51.85;151523.44;1606240;88;21068;-69
2022/04/15 07:00:28;;;;;;;10.90;6.12;;;;;;;15.41;51.98;151524.72;1605584;88;21191;-68
2022/04/15 07:02:55;;;;;;;13.50;6.87;;;;;;;15.40;52.14;151523.44;1606137;88;21538;-68
2022/04/15 07:05:23;;;;;;;13.35;6.45;;;;;;;15.37;52.51;151515.64;1605782;89;21083;-69
2022/04/15 07:07:51;;;;;;;10.90;6.87;;;;;;;15.34;52.64;151507.78;1605780;88;21262;-68
2022/04/15 07:10:20;;;;;;;12.78;7.60;;;;;;;15.29;52.94;151494.78;1605881;88;21124;-65
2022/04/15 07:12:48;;;;;;;13.72;8.58;;;;;;;15.26;53.25;151486.97;1605903;88;21112;-69
2022/04/15 07:15:15;;;;;;;14.50;7.97;;;;;;;15.24;53.89;151483.03;1606444;89;21045;-68
2022/04/15 07:17:42;;;;;;;14.75;8.53;;;;;;;15.23;54.43;151480.44;1605789;88;21099;-66
2022/04/15 07:20:12;;;;;;;17.45;8.03;;;;;;;15.23;54.64;151479.16;1606182;89;21069;-65
2022/04/15 07:22:39;;;;;;;15.65;7.65;;;;;;;15.21;54.54;151473.97;1605926;88;21068;-65
2022/04/15 07:25:07;;;;;;;11.68;6.72;;;;;;;15.15;54.32;151460.95;1606120;89;21069;-65
2022/04/15 07:27:35;;;;;;;12.58;7.00;;;;;;;15.10;54.16;151447.91;1606175;88;21156;-68
2022/04/15 07:30:03;;;;;;;13.65;6.97;;;;;;;15.05;54.44;151434.89;1606231;88;21105;-69
2022/04/15 07:32:34;;;;;;;9.83;6.75;;;;;;;15.02;54.28;151427.09;1605969;88;21237;-69
2022/04/15 07:35:04;;;;;;;10.78;7.12;;;;;;;15.00;54.38;151423.16;1628966;87;21070;-69
2022/04/15 07:37:32;;;;;;;13.28;6.35;;;;;;;15.00;54.34;151423.16;1605915;87;21064;-68
2022/04/15 07:40:00;;;;;;;13.55;7.72;;;;;;;15.00;54.44;151421.88;1606215;88;21633;-65
2022/04/15 07:42:27;;;;;;;10.55;7.10;;;;;;;14.97;54.47;151414.08;1605734;88;21111;-65
2022/04/15 07:44:54;;;;;;;10.32;6.33;;;;;;;14.90;54.68;151397.16;1606107;88;21327;-65
2022/04/15 07:47:23;;;;;;;12.30;6.60;;;;;;;14.87;54.78;151390.63;1606190;89;21430;-69
2022/04/15 07:49:51;;;;;;;13.03;6.17;;;;;;;14.86;54.77;151388.03;1606231;88;21329;-68
2022/04/15 07:52:18;;;;;;;9.78;5.50;;;;;;;14.88;54.63;151393.22;1605862;88;21013;-68
2022/04/15 07:54:46;;;;;;;13.05;6.20;;;;;;;14.92;54.36;151401.03;1605904;87;21064;-66
2022/04/15 07:57:13;;;;;;;7.37;4.95;;;;;;;14.95;54.39;151408.88;1606116;87;21259;-68
2022/04/15 07:59:40;;;;;;;12.98;6.33;;;;;;;14.97;53.72;151415.36;1605680;89;21183;-68
2022/04/15 08:02:08;;;;;;;9.65;5.40;;;;;;;14.96;53.83;151411.48;1606172;88;20953;-68
2022/04/15 08:04:36;;;;;;;9.20;4.97;;;;;;;14.99;53.89;151419.28;1605746;88;21083;-65
2022/04/15 08:07:07;;;;;;;12.45;5.47;;;;;;;15.04;53.67;151432.28;1606231;88;21616;-66
2022/04/15 08:09:36;;;;;;;12.05;6.22;;;;;;;15.11;53.41;151449.22;1606307;88;21068;-63
2022/04/15 08:12:04;;;;;;;8.10;5.62;;;;;;;15.13;53.37;151454.42;1606295;88;21061;-64
2022/04/15 08:14:31;;;;;;;7.97;5.17;;;;;;;15.17;53.15;151464.83;1605779;88;21860;-64
2022/04/15 08:16:59;;;;;;;10.98;5.87;;;;;;;15.17;52.96;151464.83;1605718;88;21152;-68
2022/04/15 08:19:26;;;;;;;9.63;5.47;;;;;;;15.16;53.00;151463.56;1606045;88;21588;-66
2022/04/15 08:21:53;;;;;;;15.75;6.60;;;;;;;15.16;53.33;151463.56;1605952;88;21250;-66
2022/04/15 08:24:21;;;;;;;10.63;6.10;;;;;;;15.22;53.52;151477.84;1605370;87;21080;-66
2022/04/15 08:26:49;;;;;;;9.60;5.87;;;;;;;15.24;53.74;151483.03;1605704;88;21096;-69
2022/04/15 08:29:18;;;;;;;11.45;6.10;;;;;;;15.24;53.58;151483.03;1605553;89;21053;-65
2022/04/15 08:31:46;;;;;;;10.53;7.12;;;;;;;15.22;53.26;151476.56;1605631;88;21115;-65
2022/04/15 08:34:14;;;;;;;10.82;6.97;;;;;;;15.24;53.54;151481.77;1606044;88;21254;-65
2022/04/15 08:36:40;;;;;;;11.85;6.08;;;;;;;15.26;53.53;151486.97;1605690;88;21127;-69
2022/04/15 08:39:08;;;;;;;12.07;6.87;;;;;;;15.27;53.74;151490.91;1605871;88;21076;-68
2022/04/15 08:41:39;;;;;;;8.13;5.97;;;;;;;15.29;53.51;151494.78;1605627;88;21436;-69
2022/04/15 08:44:07;;;;;;;12.82;6.72;;;;;;;15.28;53.69;151492.17;1606261;88;21498;-68
2022/04/15 08:46:36;;;;;;;11.63;5.45;;;;;;;15.31;54.06;151501.30;1606094;88;22653;-68
2022/04/15 08:49:03;;;;;;;12.10;5.70;;;;;;;15.38;53.59;151518.23;1606182;89;21041;-64
2022/04/15 08:51:31;;;;;;;8.38;5.12;;;;;;;15.43;53.19;151531.25;1605782;88;21142;-68
2022/04/15 08:53:58;;;;;;;9.43;4.92;;;;;;;15.50;52.93;151546.86;1605978;89;22179;-64
2022/04/15 08:56:26;;;;;;;10.05;4.70;;;;;;;15.55;52.68;151559.88;1606302;88;21526;-67
2022/04/15 08:58:54;;;;;;;8.80;5.85;;;;;;;15.59;52.54;151570.33;1605913;88;21154;-69
2022/04/15 09:01:21;;;;;;;10.40;5.65;;;;;;;15.63;52.58;151580.73;1605887;88;21035;-64
2022/04/15 09:03:49;;;;;;;8.85;5.08;;;;;;;15.66;52.58;151588.55;1605898;88;21087;-65
2022/04/15 09:06:16;;;;;;;7.58;4.15;;;;;;;15.71;52.34;151601.56;1625257;87;21029;-65
2022/04/15 09:09:12;;;;;;;7.08;4.67;;;;;;;15.74;51.91;151609.36;1605647;88;21131;-66
2022/04/15 09:11:45;;;;;;;11.15;5.53;;;;;;;15.79;51.62;151619.78;1606048;88;21977;-69
2022/04/15 09:14:13;;;;;;;9.95;5.80;;;;;;;15.82;51.56;151628.91;1605331;88;21593;-68
2022/04/15 09:16:48;;;;;;;12.15;5.37;;;;;;;15.79;51.42;151621.09;1605516;88;21020;-69
2022/04/15 09:19:16;;;;;;;8.73;5.35;;;;;;;15.81;51.43;151626.31;1606224;88;21013;-65
2022/04/15 09:21:53;;;;;;;7.92;5.08;;;;;;;15.79;51.50;151619.78;1605906;88;21086;-65
2022/04/15 09:24:33;;;;;;;8.80;5.37;;;;;;;15.73;51.61;151606.77;1607816;87;21251;-65
2022/04/15 09:27:06;;;;;;;12.13;5.30;;;;;;;15.67;51.58;151589.81;1637893;86;21087;-65
2022/04/15 09:29:34;;;;;;;11.10;5.85;;;;;;;15.59;51.83;151570.33;1612801;87;21106;-68
2022/04/15 09:32:10;;;;;;;9.93;4.92;;;;;;;15.52;52.10;151552.06;1613301;87;21087;-68
2022/04/15 09:35:07;;;;;;;12.82;5.55;;;;;;;15.46;52.17;151537.73;1612618;87;21108;-67
2022/04/15 09:37:46;;;;;;;10.70;6.08;;;;;;;15.42;52.54;151527.31;1613216;87;21657;-69
2022/04/15 09:40:28;;;;;;;8.98;5.83;;;;;;;15.37;53.19;151515.64;1612274;87;21119;-69
2022/04/15 09:42:57;;;;;;;8.13;5.42;;;;;;;15.37;53.09;151514.31;1612007;87;21579;-65
2022/04/15 09:45:34;;;;;;;12.30;6.03;;;;;;;15.33;53.17;151505.19;1611937;87;21151;-65
2022/04/15 09:48:04;;;;;;;9.68;6.17;;;;;;;15.29;53.47;151496.09;1613008;88;21156;-65
2022/04/15 09:50:44;;;;;;;12.03;6.37;;;;;;;15.30;54.09;151497.38;1612714;87;21067;-68
2022/04/15 09:53:17;;;;;;;10.10;5.67;;;;;;;15.33;54.61;151506.50;1612861;87;21044;-68
2022/04/15 09:55:51;;;;;;;10.38;5.80;;;;;;;15.33;54.89;151505.19;1612601;87;21091;-68
2022/04/15 09:58:23;;;;;;;9.95;5.80;;;;;;;15.32;54.62;151503.91;1613045;87;21527;-65
2022/04/15 10:00:54;;;;;;;12.43;6.90;;;;;;;15.30;54.52;151497.38;1612947;88;21638;-65
2022/04/15 10:03:22;;;;;;;11.38;7.22;;;;;;;15.27;54.76;151489.56;1613376;87;22004;-68
2022/04/15 10:05:51;;;;;;;13.60;6.75;;;;;;;15.27;55.29;151489.56;1612693;87;21076;-70
2022/04/15 10:08:24;;;;;;;11.10;6.30;;;;;;;15.25;55.64;151485.69;1613067;87;20937;-69
2022/04/15 10:10:53;;;;;;;10.28;5.67;;;;;;;15.28;55.58;151493.50;1613033;87;21079;-68
2022/04/15 10:13:28;;;;;;;10.60;5.78;;;;;;;15.26;55.20;151486.97;1612801;87;21007;-68
2022/04/15 10:15:56;;;;;;;8.45;6.20;;;;;;;15.17;54.93;151466.16;1612989;88;22014;-68
2022/04/15 10:18:23;;;;;;;8.65;5.58;;;;;;;15.09;55.55;151444.03;1612808;87;21039;-68
2022/04/15 10:20:52;;;;;;;11.48;5.60;;;;;;;15.03;55.82;151429.69;1637227;85;21088;-68
2022/04/15 10:23:22;;;;;;;9.15;5.78;;;;;;;14.98;55.90;151417.95;1613066;87;21008;-68
2022/04/15 10:25:51;;;;;;;11.20;5.83;;;;;;;14.92;56.15;151401.03;1607097;88;21672;-65
2022/04/15 10:28:24;;;;;;;10.45;5.70;;;;;;;14.88;56.38;151393.22;1606397;88;21416;-68
2022/04/15 10:31:11;;;;;;;9.55;5.37;;;;;;;14.81;56.60;151373.69;1605772;88;21744;-69
2022/04/15 10:33:40;;;;;;;9.50;5.30;;;;;;;14.75;56.86;151359.41;1633361;86;21482;-64
2022/04/15 10:36:20;;;;;;;21.77;5.87;;;;;;;14.66;57.42;151335.91;1633438;86;21029;-64
2022/04/15 10:39:11;;;;;;;10.48;5.35;;;;;;;14.57;57.93;151315.09;1633369;86;21657;-68
2022/04/15 10:41:58;;;;;;;10.15;6.00;;;;;;;14.51;58.43;151298.19;1633319;86;21248;-68
2022/04/15 10:44:36;;;;;;;12.37;5.72;;;;;;;14.41;58.95;151273.45;1633146;86;21009;-68
2022/04/15 10:47:22;;;;;;;10.35;5.33;;;;;;;14.36;59.08;151260.45;1633712;86;21535;-64
2022/04/15 10:50:06;;;;;;;11.70;5.65;;;;;;;14.29;59.34;151243.53;1633207;86;21136;-65
2022/04/15 10:52:35;;;;;;;10.40;5.20;;;;;;;14.23;59.96;151227.92;1633486;86;21060;-67
2022/04/15 10:55:08;;;;;;;11.45;5.72;;;;;;;14.21;60.29;151222.73;1633298;87;21250;-68
2022/04/15 10:57:40;;;;;;;10.70;5.58;;;;;;;14.16;60.89;151211.00;1632690;86;20972;-69
2022/04/15 11:02:57;;;;;;;13.45;6.05;;;;;;;14.14;61.38;151207.08;1585772;87;21624;-68
2022/04/15 11:05:49;;;;;;;9.75;5.78;;;;;;;14.09;61.47;151194.08;1656066;85;21490;-67
2022/04/15 11:08:19;;;;;;;9.40;5.45;;;;;;;14.03;61.58;151179.77;1634417;86;21300;-68
2022/04/15 11:11:03;;;;;;;12.10;5.60;;;;;;;13.99;61.62;151169.36;1633445;86;21076;-64
2022/04/15 11:13:44;;;;;;;9.08;5.10;;;;;;;13.94;62.01;151156.38;1633093;86;20996;-67
2022/04/15 11:16:18;;;;;;;10.98;5.58;;;;;;;13.91;62.38;151148.56;1610936;87;21110;-69
2022/04/15 11:18:53;;;;;;;7.80;4.67;;;;;;;13.88;62.57;151140.77;1626495;87;21054;-69
2022/04/15 11:21:23;;;;;;;7.42;4.87;;;;;;;13.83;62.82;151127.77;1606015;88;21551;-69
2022/04/15 11:23:56;;;;;;;9.43;5.45;;;;;;;13.81;62.81;151122.53;1624361;86;21167;-67
2022/04/15 11:26:26;;;;;;;7.10;4.70;;;;;;;13.79;63.04;151117.33;1605278;89;21045;-67
2022/04/15 11:28:57;;;;;;;8.43;5.08;;;;;;;13.78;63.12;151114.72;1606024;88;21079;-64
2022/04/15 11:31:34;;;;;;;14.10;5.25;;;;;;;13.79;63.50;151117.33;1605501;88;20986;-67
2022/04/15 11:34:16;;;;;;;15.32;5.62;;;;;;;13.79;63.24;151118.66;1605801;88;21170;-68